Time;durP1;ratioP1;P1;durP2;ratioP2;P2;SDS_P1;SDS_P2;PMS_P1;PMS_P2;Temp;Humidity;BMP_temperature;BMP_pressure;BME280_temperature;BME280_humidity;BME280_pressure;Samples;Min_cycle;Max_cycle;Signal;HPM_P1;HPM_P2
2022/03/28 00:01:21;;;;;;;24.20;13.23;;;;;;;;;;4828830;29;20054;-75
2022/03/28 00:03:47;;;;;;;41.15;12.68;;;;;;;;;;4828744;29;20072;-75
2022/03/28 00:06:13;;;;;;;21.98;12.52;;;;;;;;;;4843409;29;20084;-77
2022/03/28 00:08:39;;;;;;;24.55;11.95;;;;;;;;;;4844197;29;20045;-75
2022/03/28 00:11:06;;;;;;;17.17;11.73;;;;;;;;;;4843360;29;20093;-76
2022/03/28 00:13:33;;;;;;;25.00;12.25;;;;;;;;;;4829046;29;20049;-76
2022/03/28 00:15:59;;;;;;;21.10;12.70;;;;;;;;;;4843101;29;20322;-80
2022/03/28 00:18:26;;;;;;;21.75;13.65;;;;;;;;;;4843237;29;20140;-79
2022/03/28 00:20:53;;;;;;;29.02;13.38;;;;;;;;;;4828482;29;20132;-75
2022/03/28 00:23:19;;;;;;;19.60;12.98;;;;;;;;;;4828586;29;20270;-75
2022/03/28 00:25:46;;;;;;;19.50;12.52;;;;;;;;;;4843673;29;20065;-77
2022/03/28 00:28:12;;;;;;;24.60;13.57;;;;;;;;;;4827993;29;20049;-77
2022/03/28 00:30:38;;;;;;;21.05;12.85;;;;;;;;;;4843727;29;20114;-74
2022/03/28 00:33:05;;;;;;;20.25;13.05;;;;;;;;;;4843021;29;20393;-75
2022/03/28 00:35:31;;;;;;;18.38;11.60;;;;;;;;;;4843727;29;20049;-75
2022/03/28 00:37:57;;;;;;;16.30;11.38;;;;;;;;;;4843122;29;20045;-76
2022/03/28 00:40:23;;;;;;;18.60;11.30;;;;;;;;;;4843463;29;20042;-75
2022/03/28 00:42:50;;;;;;;17.40;11.82;;;;;;;;;;4828864;29;20094;-75
2022/03/28 00:45:16;;;;;;;17.90;12.00;;;;;;;;;;4828031;29;20133;-75
2022/03/28 00:47:43;;;;;;;23.38;11.95;;;;;;;;;;4828481;29;20053;-75
2022/03/28 00:50:10;;;;;;;22.08;12.70;;;;;;;;;;4827553;29;20073;-75
2022/03/28 00:52:37;;;;;;;20.05;13.10;;;;;;;;;;4843077;29;20071;-74
2022/03/28 00:55:04;;;;;;;22.13;12.52;;;;;;;;;;4827978;29;20049;-77
2022/03/28 00:57:30;;;;;;;23.08;13.25;;;;;;;;;;4828259;29;20057;-75
2022/03/28 00:59:56;;;;;;;21.73;13.32;;;;;;;;;;4842410;29;20486;-75
2022/03/28 01:02:22;;;;;;;21.73;13.35;;;;;;;;;;4842140;29;20053;-76
2022/03/28 01:04:50;;;;;;;23.90;13.20;;;;;;;;;;4827979;29;20046;-76
2022/03/28 01:07:17;;;;;;;30.65;13.70;;;;;;;;;;4827027;29;20088;-76
2022/03/28 01:09:43;;;;;;;25.75;13.15;;;;;;;;;;4828133;29;20060;-74
2022/03/28 01:12:10;;;;;;;18.90;12.63;;;;;;;;;;4842349;29;20058;-75
2022/03/28 01:14:36;;;;;;;24.13;12.93;;;;;;;;;;4827658;29;20046;-76
2022/03/28 01:19:54;;;;;;;22.52;13.93;;;;;;;;;;4842954;29;20089;-75
2022/03/28 01:22:20;;;;;;;23.30;12.50;;;;;;;;;;4841935;29;20072;-75
2022/03/28 01:24:47;;;;;;;25.17;13.25;;;;;;;;;;4842144;29;20057;-76
2022/03/28 01:27:14;;;;;;;22.10;12.45;;;;;;;;;;4842063;29;20053;-75
2022/03/28 01:29:42;;;;;;;24.60;13.60;;;;;;;;;;4827561;29;20057;-75
2022/03/28 01:32:09;;;;;;;15.93;11.63;;;;;;;;;;4826701;29;20085;-77
2022/03/28 01:34:35;;;;;;;21.85;11.68;;;;;;;;;;4827839;29;20085;-75
2022/03/28 01:37:01;;;;;;;19.13;11.98;;;;;;;;;;4842487;29;20041;-75
2022/03/28 01:39:27;;;;;;;17.33;10.52;;;;;;;;;;4842543;29;20037;-75
2022/03/28 01:41:53;;;;;;;18.38;12.05;;;;;;;;;;4827897;29;20105;-76
2022/03/28 01:44:19;;;;;;;16.67;11.05;;;;;;;;;;4842260;29;20099;-76
2022/03/28 01:46:46;;;;;;;15.75;10.40;;;;;;;;;;4827625;29;20049;-75
2022/03/28 01:49:13;;;;;;;15.93;10.50;;;;;;;;;;4826908;29;20045;-75
2022/03/28 01:51:39;;;;;;;15.88;10.80;;;;;;;;;;4842311;29;20046;-76
2022/03/28 01:54:06;;;;;;;13.65;9.40;;;;;;;;;;4827457;29;20041;-75
2022/03/28 01:56:34;;;;;;;14.88;10.50;;;;;;;;;;4827298;29;20062;-75
2022/03/28 01:59:00;;;;;;;12.88;9.43;;;;;;;;;;4827138;29;20056;-76
2022/03/28 02:01:26;;;;;;;10.35;9.23;;;;;;;;;;4827471;29;20255;-75
2022/03/28 02:03:53;;;;;;;14.70;10.00;;;;;;;;;;4842597;29;20049;-75
2022/03/28 02:06:19;;;;;;;14.93;9.68;;;;;;;;;;4823686;29;20382;-75
2022/03/28 02:08:45;;;;;;;15.40;11.77;;;;;;;;;;4841684;29;20045;-75
2022/03/28 02:11:11;;;;;;;17.05;11.70;;;;;;;;;;4841289;29;20412;-77
2022/03/28 02:13:37;;;;;;;16.67;12.25;;;;;;;;;;4827350;29;20144;-75
2022/03/28 02:16:03;;;;;;;18.02;12.38;;;;;;;;;;4841825;29;20482;-75
2022/03/28 02:18:29;;;;;;;22.10;13.38;;;;;;;;;;4841706;29;20490;-75
2022/03/28 02:20:56;;;;;;;19.40;12.90;;;;;;;;;;4826840;29;20053;-75
2022/03/28 02:23:23;;;;;;;20.88;12.35;;;;;;;;;;4841594;29;20443;-75
2022/03/28 02:25:49;;;;;;;17.00;12.02;;;;;;;;;;4842091;29;20057;-74
2022/03/28 02:28:15;;;;;;;13.35;11.63;;;;;;;;;;4841955;29;20101;-74
2022/03/28 02:30:42;;;;;;;18.30;12.77;;;;;;;;;;4841957;29;20470;-74
2022/03/28 02:33:09;;;;;;;20.65;13.40;;;;;;;;;;4827301;29;20054;-74
2022/03/28 02:35:35;;;;;;;17.60;13.10;;;;;;;;;;4841674;29;20393;-75
2022/03/28 02:38:02;;;;;;;18.70;12.52;;;;;;;;;;4826693;29;20050;-75
2022/03/28 02:40:29;;;;;;;16.98;12.82;;;;;;;;;;4825871;29;20050;-76
2022/03/28 02:42:57;;;;;;;15.90;12.23;;;;;;;;;;4844621;29;20126;-75
2022/03/28 02:45:23;;;;;;;17.30;13.60;;;;;;;;;;4845659;29;20049;-75
2022/03/28 02:47:50;;;;;;;19.48;14.45;;;;;;;;;;4830034;29;20066;-75
2022/03/28 02:50:16;;;;;;;24.65;14.30;;;;;;;;;;4829551;29;20045;-77
2022/03/28 02:52:42;;;;;;;20.42;13.18;;;;;;;;;;4829503;29;20053;-75
2022/03/28 02:55:08;;;;;;;20.52;13.38;;;;;;;;;;4845084;29;20042;-75
2022/03/28 02:57:34;;;;;;;20.27;14.48;;;;;;;;;;4844774;29;20618;-75
2022/03/28 03:00:00;;;;;;;22.63;13.48;;;;;;;;;;4845052;29;20141;-76
2022/03/28 03:02:26;;;;;;;21.45;14.07;;;;;;;;;;4829124;29;20160;-76
2022/03/28 03:04:52;;;;;;;23.05;14.15;;;;;;;;;;4829814;29;20053;-75
2022/03/28 03:07:19;;;;;;;22.70;13.73;;;;;;;;;;4829255;29;20056;-75
2022/03/28 03:09:45;;;;;;;22.02;14.57;;;;;;;;;;4844871;29;20464;-74
2022/03/28 03:12:11;;;;;;;21.65;13.63;;;;;;;;;;4829113;29;20053;-75
2022/03/28 03:14:37;;;;;;;22.60;13.88;;;;;;;;;;4844016;29;20096;-74
2022/03/28 03:17:03;;;;;;;19.10;13.85;;;;;;;;;;4844689;29;20046;-74
2022/03/28 03:19:29;;;;;;;21.23;13.65;;;;;;;;;;4829261;29;20050;-75
2022/03/28 03:21:55;;;;;;;21.58;13.63;;;;;;;;;;4829325;29;20414;-74
2022/03/28 03:24:21;;;;;;;17.65;14.45;;;;;;;;;;4844092;29;20383;-76
2022/03/28 03:26:47;;;;;;;23.77;14.05;;;;;;;;;;4829673;29;20061;-74
2022/03/28 03:29:14;;;;;;;19.27;12.68;;;;;;;;;;4844548;29;20103;-75
2022/03/28 03:31:40;;;;;;;21.88;13.85;;;;;;;;;;4844532;29;20045;-76
2022/03/28 03:34:07;;;;;;;18.90;13.30;;;;;;;;;;4829193;29;20050;-75
2022/03/28 03:36:33;;;;;;;22.00;14.00;;;;;;;;;;4828728;29;20398;-75
2022/03/28 03:38:59;;;;;;;21.05;13.57;;;;;;;;;;4829389;29;20061;-75
2022/03/28 03:41:25;;;;;;;21.50;13.25;;;;;;;;;;4828887;29;20696;-75
2022/03/28 03:43:51;;;;;;;20.05;13.57;;;;;;;;;;4828419;29;20391;-75
2022/03/28 03:46:18;;;;;;;26.50;13.73;;;;;;;;;;4844838;29;20227;-75
2022/03/28 03:48:44;;;;;;;23.83;12.82;;;;;;;;;;4844032;29;20053;-74
2022/03/28 03:51:10;;;;;;;22.40;12.63;;;;;;;;;;4828964;29;20140;-76
2022/03/28 03:53:36;;;;;;;24.52;13.32;;;;;;;;;;4828545;29;20053;-75
2022/03/28 03:56:03;;;;;;;22.38;13.23;;;;;;;;;;4844435;29;20467;-75
2022/03/28 03:58:29;;;;;;;20.55;13.32;;;;;;;;;;4843595;29;20553;-75
2022/03/28 04:00:55;;;;;;;27.23;14.07;;;;;;;;;;4828617;29;20042;-76
2022/03/28 04:03:22;;;;;;;23.27;13.80;;;;;;;;;;4843480;29;20486;-77
2022/03/28 04:05:48;;;;;;;22.70;14.30;;;;;;;;;;4828708;29;20102;-75
2022/03/28 04:08:14;;;;;;;24.90;14.35;;;;;;;;;;4828890;29;20109;-75
2022/03/28 04:10:42;;;;;;;23.20;14.18;;;;;;;;;;4843554;29;20045;-75
2022/03/28 04:13:10;;;;;;;33.83;15.98;;;;;;;;;;4844311;29;20489;-75
2022/03/28 04:15:36;;;;;;;27.90;15.70;;;;;;;;;;4843017;29;20049;-74
2022/03/28 04:18:02;;;;;;;27.98;16.05;;;;;;;;;;4843411;29;20090;-75
2022/03/28 04:20:29;;;;;;;36.60;15.38;;;;;;;;;;4843099;29;20147;-76
2022/03/28 04:22:55;;;;;;;26.63;14.80;;;;;;;;;;4828240;29;20608;-74
2022/03/28 04:25:21;;;;;;;31.70;14.32;;;;;;;;;;4828488;29;20061;-76
2022/03/28 04:27:48;;;;;;;26.08;14.57;;;;;;;;;;4828898;29;20049;-74
2022/03/28 04:30:14;;;;;;;20.20;12.55;;;;;;;;;;4843533;29;20105;-76
2022/03/28 04:32:40;;;;;;;20.98;12.77;;;;;;;;;;4842809;29;20128;-76
2022/03/28 04:35:07;;;;;;;22.35;13.13;;;;;;;;;;4828643;29;20100;-75
2022/03/28 04:37:38;;;;;;;23.25;13.55;;;;;;;;;;4827607;29;20061;-76
2022/03/28 04:40:05;;;;;;;32.80;15.20;;;;;;;;;;4828179;29;20099;-75
2022/03/28 04:42:32;;;;;;;27.75;14.55;;;;;;;;;;4842999;29;20069;-75
2022/03/28 04:44:58;;;;;;;29.02;15.38;;;;;;;;;;4828143;29;20057;-76
2022/03/28 04:47:24;;;;;;;27.42;15.00;;;;;;;;;;4843155;29;20041;-78
2022/03/28 04:49:51;;;;;;;28.60;14.15;;;;;;;;;;4827748;29;20084;-75
2022/03/28 04:52:17;;;;;;;39.42;15.55;;;;;;;;;;4843366;29;20457;-76
2022/03/28 04:54:43;;;;;;;32.97;16.00;;;;;;;;;;4827651;29;20478;-75
2022/03/28 04:57:09;;;;;;;32.15;13.63;;;;;;;;;;4843763;29;20509;-79
2022/03/28 04:59:35;;;;;;;28.48;13.07;;;;;;;;;;4829068;29;20449;-75
2022/03/28 05:02:01;;;;;;;27.75;12.93;;;;;;;;;;4830032;29;20049;-78
2022/03/28 05:04:27;;;;;;;21.92;10.30;;;;;;;;;;4829130;29;20088;-77
2022/03/28 05:06:53;;;;;;;22.63;11.25;;;;;;;;;;4828667;29;20054;-76
2022/03/28 05:09:19;;;;;;;26.92;10.55;;;;;;;;;;4827891;29;20490;-77
2022/03/28 05:11:45;;;;;;;16.15;9.00;;;;;;;;;;4827684;29;20513;-76
2022/03/28 05:14:12;;;;;;;16.90;7.95;;;;;;;;;;4842806;29;20405;-75
2022/03/28 05:16:38;;;;;;;10.13;5.40;;;;;;;;;;4827322;29;20485;-77
2022/03/28 05:19:05;;;;;;;10.85;5.05;;;;;;;;;;4827446;29;20049;-76
2022/03/28 05:21:31;;;;;;;13.52;4.55;;;;;;;;;;4826596;29;20058;-75
2022/03/28 05:23:57;;;;;;;6.57;3.72;;;;;;;;;;4827434;29;20498;-75
2022/03/28 05:26:23;;;;;;;6.15;3.00;;;;;;;;;;4828464;29;20100;-75
2022/03/28 05:28:49;;;;;;;4.68;2.35;;;;;;;;;;4842245;29;20049;-76
2022/03/28 05:31:15;;;;;;;4.18;2.53;;;;;;;;;;4827528;29;20050;-76
2022/03/28 05:33:41;;;;;;;4.93;2.72;;;;;;;;;;4838070;29;20055;-74
2022/03/28 05:36:07;;;;;;;5.15;2.70;;;;;;;;;;4823266;29;20049;-74
2022/03/28 05:38:34;;;;;;;5.50;2.80;;;;;;;;;;4837324;29;20463;-73
2022/03/28 05:41:00;;;;;;;6.13;2.50;;;;;;;;;;4826484;29;20045;-77
2022/03/28 05:43:26;;;;;;;3.92;2.10;;;;;;;;;;4842926;29;20068;-76
2022/03/28 05:45:53;;;;;;;5.07;2.17;;;;;;;;;;4841179;29;20046;-78
2022/03/28 05:48:19;;;;;;;4.38;2.35;;;;;;;;;;4827189;29;20132;-76
2022/03/28 05:50:46;;;;;;;4.75;2.10;;;;;;;;;;4842662;29;20483;-76
2022/03/28 05:53:13;;;;;;;4.25;1.98;;;;;;;;;;4828462;29;20057;-75
2022/03/28 05:55:40;;;;;;;4.28;1.90;;;;;;;;;;4826969;29;20105;-75
2022/03/28 05:58:08;;;;;;;3.33;1.63;;;;;;;;;;4828133;29;20060;-76
2022/03/28 06:00:35;;;;;;;4.18;1.65;;;;;;;;;;4827596;29;20053;-76
2022/03/28 06:03:01;;;;;;;3.75;2.15;;;;;;;;;;4828328;29;20050;-76
2022/03/28 06:05:27;;;;;;;5.22;2.20;;;;;;;;;;4828070;29;20513;-75
2022/03/28 06:07:54;;;;;;;4.97;2.42;;;;;;;;;;4827919;29;20083;-75
2022/03/28 06:10:20;;;;;;;5.85;2.95;;;;;;;;;;4827847;29;20058;-75
2022/03/28 06:12:46;;;;;;;6.30;3.50;;;;;;;;;;4827773;29;20059;-75
2022/03/28 06:15:12;;;;;;;8.18;4.50;;;;;;;;;;4827599;29;20054;-74
2022/03/28 06:17:39;;;;;;;7.97;5.10;;;;;;;;;;4830785;29;20494;-74
2022/03/28 06:20:05;;;;;;;15.30;6.75;;;;;;;;;;4831115;29;20513;-74
2022/03/28 06:22:32;;;;;;;17.63;6.72;;;;;;;;;;4846906;29;20092;-74
2022/03/28 06:24:59;;;;;;;12.52;6.90;;;;;;;;;;4831159;29;20564;-75
2022/03/28 06:27:25;;;;;;;17.50;8.00;;;;;;;;;;4831701;29;20060;-74
2022/03/28 06:29:54;;;;;;;12.73;7.53;;;;;;;;;;4846210;29;20052;-74
2022/03/28 06:32:20;;;;;;;16.45;7.90;;;;;;;;;;4831395;29;20050;-74
2022/03/28 06:34:48;;;;;;;25.23;9.95;;;;;;;;;;4831256;29;20053;-74
2022/03/28 06:37:15;;;;;;;26.73;10.45;;;;;;;;;;4831070;29;20055;-74
2022/03/28 06:39:41;;;;;;;19.88;10.65;;;;;;;;;;4830815;29;20439;-76
2022/03/28 06:42:07;;;;;;;22.83;12.43;;;;;;;;;;4831213;29;20105;-74
2022/03/28 06:44:34;;;;;;;20.33;11.07;;;;;;;;;;4846998;29;20053;-74
2022/03/28 06:47:00;;;;;;;18.13;11.27;;;;;;;;;;4846502;29;20042;-76
2022/03/28 06:49:26;;;;;;;15.80;10.70;;;;;;;;;;4830513;29;20046;-76
2022/03/28 06:51:52;;;;;;;14.00;10.40;;;;;;;;;;4830806;29;20052;-75
2022/03/28 06:54:19;;;;;;;14.48;10.57;;;;;;;;;;4831305;29;20088;-75
2022/03/28 06:56:46;;;;;;;14.98;10.32;;;;;;;;;;4830845;29;20055;-76
2022/03/28 06:59:12;;;;;;;18.10;10.93;;;;;;;;;;4830759;29;20482;-77
2022/03/28 07:01:39;;;;;;;14.63;11.15;;;;;;;;;;4830372;29;20102;-77
2022/03/28 07:04:05;;;;;;;15.98;10.80;;;;;;;;;;4846466;29;20049;-77
2022/03/28 07:06:32;;;;;;;16.48;10.65;;;;;;;;;;4845834;29;20045;-76
2022/03/28 07:08:58;;;;;;;16.00;10.98;;;;;;;;;;4829896;29;20041;-75
2022/03/28 07:11:25;;;;;;;20.80;12.43;;;;;;;;;;4841911;29;20478;-76
2022/03/28 07:13:51;;;;;;;15.75;11.45;;;;;;;;;;4825105;29;20436;-80
2022/03/28 07:16:17;;;;;;;14.98;11.32;;;;;;;;;;4839862;29;20052;-80
2022/03/28 07:18:43;;;;;;;14.93;11.32;;;;;;;;;;4828749;29;20050;-76
2022/03/28 07:21:10;;;;;;;19.50;11.75;;;;;;;;;;4830603;29;20094;-76
2022/03/28 07:23:36;;;;;;;15.90;12.52;;;;;;;;;;4845575;29;20069;-74
2022/03/28 07:26:02;;;;;;;16.17;11.52;;;;;;;;;;4830144;29;20135;-74
2022/03/28 07:28:29;;;;;;;16.77;11.85;;;;;;;;;;4829644;29;20049;-77
2022/03/28 07:30:55;;;;;;;18.67;12.48;;;;;;;;;;4830145;29;20053;-75
2022/03/28 07:33:21;;;;;;;15.10;11.60;;;;;;;;;;4829871;29;20058;-77
2022/03/28 07:35:48;;;;;;;13.90;12.07;;;;;;;;;;4845523;29;20085;-76
2022/03/28 07:38:14;;;;;;;17.20;12.27;;;;;;;;;;4830290;29;20251;-76
2022/03/28 07:40:40;;;;;;;13.30;11.63;;;;;;;;;;4830152;29;20045;-78
2022/03/28 07:43:07;;;;;;;17.42;11.88;;;;;;;;;;4834958;29;20058;-76
2022/03/28 07:45:33;;;;;;;14.15;11.25;;;;;;;;;;4827249;29;20058;-76
2022/03/28 07:47:59;;;;;;;13.88;11.02;;;;;;;;;;4811241;29;20045;-76
2022/03/28 07:50:25;;;;;;;15.48;11.77;;;;;;;;;;4826993;29;20073;-76
2022/03/28 07:52:52;;;;;;;15.25;11.77;;;;;;;;;;4811502;29;20108;-76
2022/03/28 07:55:18;;;;;;;14.35;11.43;;;;;;;;;;4811920;29;20050;-75
2022/03/28 07:57:45;;;;;;;14.75;11.57;;;;;;;;;;4811335;29;20072;-76
2022/03/28 08:00:13;;;;;;;14.65;12.10;;;;;;;;;;4811322;29;20050;-78
2022/03/28 08:02:39;;;;;;;15.10;11.20;;;;;;;;;;4810914;29;20106;-76
2022/03/28 08:05:07;;;;;;;19.55;11.63;;;;;;;;;;4811308;29;20106;-75
2022/03/28 08:07:33;;;;;;;14.65;12.23;;;;;;;;;;4811432;29;20054;-78
2022/03/28 08:09:59;;;;;;;13.77;11.50;;;;;;;;;;4810188;29;20057;-75
2022/03/28 08:12:25;;;;;;;15.45;12.35;;;;;;;;;;4826497;29;20102;-79
2022/03/28 08:14:52;;;;;;;15.63;12.77;;;;;;;;;;4810593;29;20058;-76
2022/03/28 08:17:19;;;;;;;15.05;12.57;;;;;;;;;;4826701;29;20057;-76
2022/03/28 08:19:45;;;;;;;18.63;13.32;;;;;;;;;;4810184;29;20134;-78
2022/03/28 08:22:11;;;;;;;18.20;13.38;;;;;;;;;;4826465;29;20042;-74
2022/03/28 08:24:38;;;;;;;19.65;14.45;;;;;;;;;;4811227;29;20106;-77
2022/03/28 08:27:04;;;;;;;21.77;15.77;;;;;;;;;;4811118;29;20193;-74
2022/03/28 08:29:32;;;;;;;21.75;15.45;;;;;;;;;;4810615;29;20053;-74
2022/03/28 08:31:59;;;;;;;21.95;16.00;;;;;;;;;;4810666;29;20101;-76
2022/03/28 08:34:25;;;;;;;20.63;15.65;;;;;;;;;;4811433;29;20054;-76
2022/03/28 08:36:51;;;;;;;20.30;14.50;;;;;;;;;;4810638;29;20064;-75
2022/03/28 08:39:18;;;;;;;19.15;15.02;;;;;;;;;;4810278;29;20089;-78
2022/03/28 08:41:47;;;;;;;20.48;14.82;;;;;;;;;;4810219;29;20126;-79
2022/03/28 08:44:13;;;;;;;17.85;13.85;;;;;;;;;;4844064;29;20049;-78
2022/03/28 08:46:41;;;;;;;18.00;14.93;;;;;;;;;;4828187;29;20118;-76
2022/03/28 08:49:07;;;;;;;18.70;14.77;;;;;;;;;;4843069;29;20045;-74
2022/03/28 08:51:34;;;;;;;23.02;15.98;;;;;;;;;;4842816;29;20045;-75
2022/03/28 08:54:00;;;;;;;19.77;15.25;;;;;;;;;;4827142;29;20136;-77
2022/03/28 08:56:26;;;;;;;24.75;15.82;;;;;;;;;;4828275;29;20052;-77
2022/03/28 08:58:52;;;;;;;19.58;15.23;;;;;;;;;;4829089;29;20052;-75
2022/03/28 09:01:20;;;;;;;26.88;17.88;;;;;;;;;;4826034;29;20045;-75
2022/03/28 09:03:50;;;;;;;26.05;18.00;;;;;;;;;;4842889;29;20045;-78
2022/03/28 09:06:37;;;;;;;24.65;17.48;;;;;;;;;;4828104;29;20053;-79
2022/03/28 09:09:13;;;;;;;23.60;16.15;;;;;;;;;;4827414;29;20056;-75
2022/03/28 09:11:44;;;;;;;19.67;14.23;;;;;;;;;;4827694;29;20207;-73
2022/03/28 09:14:29;;;;;;;17.25;13.68;;;;;;;;;;4826975;29;20050;-79
2022/03/28 09:16:59;;;;;;;17.35;14.00;;;;;;;;;;4827056;29;20060;-80
2022/03/28 09:19:25;;;;;;;18.17;14.50;;;;;;;;;;4827504;29;20049;-78
2022/03/28 09:21:51;;;;;;;16.50;13.50;;;;;;;;;;4827767;29;20052;-73
2022/03/28 09:24:17;;;;;;;15.27;13.35;;;;;;;;;;4844046;29;20053;-74
2022/03/28 09:26:43;;;;;;;20.17;14.10;;;;;;;;;;4860088;29;20489;-74
2022/03/28 09:29:09;;;;;;;16.60;13.85;;;;;;;;;;4842998;29;20093;-76
2022/03/28 09:31:37;;;;;;;20.55;14.48;;;;;;;;;;4842170;29;20438;-75
2022/03/28 09:34:19;;;;;;;18.00;13.65;;;;;;;;;;4827409;29;20053;-75
2022/03/28 09:36:45;;;;;;;21.33;15.00;;;;;;;;;;4842766;29;20045;-74
2022/03/28 09:39:19;;;;;;;20.05;14.95;;;;;;;;;;4828214;29;20052;-78
2022/03/28 09:41:47;;;;;;;19.65;16.23;;;;;;;;;;4826379;29;20052;-79
2022/03/28 09:44:13;;;;;;;20.02;15.40;;;;;;;;;;4825452;29;20072;-81
2022/03/28 09:46:39;;;;;;;22.65;16.88;;;;;;;;;;4825756;29;20104;-81
2022/03/28 09:49:08;;;;;;;22.85;16.73;;;;;;;;;;4824491;29;20081;-83
2022/03/28 09:51:35;;;;;;;18.88;14.10;;;;;;;;;;4808696;29;20046;-80
2022/03/28 09:54:01;;;;;;;22.95;15.00;;;;;;;;;;4808509;29;20056;-88
2022/03/28 09:56:28;;;;;;;18.27;15.05;;;;;;;;;;4810009;29;20054;-87
2022/03/28 09:59:00;;;;;;;19.25;13.93;;;;;;;;;;4825030;29;20050;-81
2022/03/28 10:01:27;;;;;;;18.15;14.88;;;;;;;;;;4809478;29;20145;-78
2022/03/28 10:04:00;;;;;;;23.60;15.77;;;;;;;;;;4824858;29;20066;-81
2022/03/28 10:06:26;;;;;;;19.55;14.40;;;;;;;;;;4809725;29;20061;-85
2022/03/28 10:08:52;;;;;;;19.10;14.95;;;;;;;;;;4809517;29;20077;-83
2022/03/28 10:11:19;;;;;;;22.33;13.65;;;;;;;;;;4810855;29;20046;-81
2022/03/28 10:13:45;;;;;;;18.88;14.25;;;;;;;;;;4809967;29;20050;-78
2022/03/28 10:16:11;;;;;;;19.58;14.55;;;;;;;;;;4807139;29;20092;-79
2022/03/28 10:18:38;;;;;;;20.80;14.73;;;;;;;;;;4808674;29;20495;-76
2022/03/28 10:21:09;;;;;;;21.20;15.55;;;;;;;;;;4824747;29;20046;-76
2022/03/28 10:23:37;;;;;;;21.65;14.88;;;;;;;;;;4809797;29;20141;-81
2022/03/28 10:26:04;;;;;;;18.75;14.60;;;;;;;;;;4825102;29;20046;-79
2022/03/28 10:28:31;;;;;;;19.73;14.48;;;;;;;;;;4808615;29;20099;-78
2022/03/28 10:31:13;;;;;;;20.90;15.88;;;;;;;;;;4808140;29;20132;-78
2022/03/28 10:33:47;;;;;;;19.88;15.52;;;;;;;;;;4806678;29;20064;-77
2022/03/28 10:36:24;;;;;;;18.83;14.98;;;;;;;;;;4809656;29;20086;-82
2022/03/28 10:38:51;;;;;;;17.40;14.90;;;;;;;;;;4823899;29;20054;-78
2022/03/28 10:41:18;;;;;;;19.40;14.93;;;;;;;;;;4807959;29;20050;-79
2022/03/28 10:43:45;;;;;;;22.73;15.50;;;;;;;;;;4809717;29;20058;-79
2022/03/28 10:46:12;;;;;;;17.48;14.52;;;;;;;;;;4824543;29;20499;-82
2022/03/28 10:48:43;;;;;;;18.30;15.25;;;;;;;;;;4809885;29;20061;-76
2022/03/28 10:51:20;;;;;;;17.00;14.73;;;;;;;;;;4824765;29;20105;-79
2022/03/28 10:53:52;;;;;;;17.02;15.23;;;;;;;;;;4824577;29;20062;-79
2022/03/28 10:56:20;;;;;;;21.00;15.50;;;;;;;;;;4808968;29;20132;-79
2022/03/28 10:58:53;;;;;;;20.85;16.70;;;;;;;;;;4809582;29;20058;-79
2022/03/28 11:01:22;;;;;;;23.35;17.80;;;;;;;;;;4822664;29;20050;-79
2022/03/28 11:03:52;;;;;;;19.80;16.30;;;;;;;;;;4827193;29;20387;-82
2022/03/28 11:06:19;;;;;;;20.58;15.52;;;;;;;;;;4812950;29;20051;-80
2022/03/28 11:08:57;;;;;;;19.20;14.85;;;;;;;;;;4812947;29;20060;-78
2022/03/28 11:11:24;;;;;;;19.50;15.95;;;;;;;;;;4827328;29;20516;-77
2022/03/28 11:14:10;;;;;;;21.25;14.98;;;;;;;;;;4826637;29;20060;-76
2022/03/28 11:16:46;;;;;;;19.75;14.93;;;;;;;;;;4811540;29;20093;-78
2022/03/28 11:19:32;;;;;;;17.65;15.55;;;;;;;;;;4810632;29;20053;-81
2022/03/28 11:22:05;;;;;;;22.67;16.38;;;;;;;;;;4825017;29;20046;-76
2022/03/28 11:24:52;;;;;;;18.60;15.73;;;;;;;;;;4827095;29;20190;-76
2022/03/28 11:27:18;;;;;;;18.50;15.27;;;;;;;;;;4826848;29;20054;-80
2022/03/28 11:29:45;;;;;;;19.60;15.65;;;;;;;;;;4826345;29;20132;-78
2022/03/28 11:32:13;;;;;;;18.67;15.73;;;;;;;;;;4809674;29;20053;-81
2022/03/28 11:34:39;;;;;;;17.13;15.32;;;;;;;;;;4807970;29;20434;-76
2022/03/28 11:37:05;;;;;;;17.25;15.02;;;;;;;;;;4808097;29;20054;-75
2022/03/28 11:39:32;;;;;;;17.95;15.00;;;;;;;;;;4810349;29;20056;-74
2022/03/28 11:41:58;;;;;;;17.27;15.32;;;;;;;;;;4826473;29;20053;-75
2022/03/28 11:44:25;;;;;;;18.33;14.30;;;;;;;;;;4825461;29;20062;-77
2022/03/28 11:46:55;;;;;;;17.98;14.93;;;;;;;;;;4824817;29;20161;-78
2022/03/28 11:49:21;;;;;;;19.60;15.35;;;;;;;;;;4810706;29;20163;-79
2022/03/28 11:51:48;;;;;;;17.48;15.23;;;;;;;;;;4811211;29;20106;-81
2022/03/28 11:54:19;;;;;;;21.73;15.25;;;;;;;;;;4810803;29;20062;-83
2022/03/28 11:59:31;;;;;;;18.23;14.63;;;;;;;;;;4814413;29;20133;-73
2022/03/28 12:01:57;;;;;;;20.77;15.15;;;;;;;;;;4824890;29;20481;-75
2022/03/28 12:04:23;;;;;;;19.17;15.02;;;;;;;;;;4825032;29;20111;-75
2022/03/28 12:06:51;;;;;;;16.95;15.15;;;;;;;;;;4811042;29;20049;-80
2022/03/28 12:09:18;;;;;;;21.70;15.23;;;;;;;;;;4811248;29;20409;-78
2022/03/28 12:11:48;;;;;;;15.93;14.23;;;;;;;;;;4825927;29;20049;-75
2022/03/28 12:14:14;;;;;;;19.40;15.07;;;;;;;;;;4823460;29;20089;-77
2022/03/28 12:16:59;;;;;;;17.00;14.27;;;;;;;;;;4825874;29;20089;-78
2022/03/28 12:19:29;;;;;;;17.83;14.23;;;;;;;;;;4811591;29;20042;-78
2022/03/28 12:21:56;;;;;;;18.75;13.60;;;;;;;;;;4825448;29;20046;-72
2022/03/28 12:24:23;;;;;;;14.90;13.23;;;;;;;;;;4811516;29;20054;-76
2022/03/28 12:26:50;;;;;;;15.00;12.85;;;;;;;;;;4810966;29;20049;-74
2022/03/28 12:29:17;;;;;;;16.48;12.88;;;;;;;;;;4840722;29;20170;-75
2022/03/28 12:31:44;;;;;;;22.20;13.98;;;;;;;;;;4825824;29;20060;-76
2022/03/28 12:34:12;;;;;;;14.70;13.18;;;;;;;;;;4809421;29;20072;-78
2022/03/28 12:36:38;;;;;;;15.80;13.35;;;;;;;;;;4825582;29;20053;-76
2022/03/28 12:39:10;;;;;;;15.18;13.45;;;;;;;;;;4825007;29;20056;-79
2022/03/28 12:41:40;;;;;;;15.05;13.32;;;;;;;;;;4825690;29;20050;-77
2022/03/28 12:44:06;;;;;;;15.48;13.68;;;;;;;;;;4808179;29;20508;-78
2022/03/28 12:46:33;;;;;;;15.20;12.93;;;;;;;;;;4810688;29;20053;-82
2022/03/28 12:49:07;;;;;;;19.08;14.35;;;;;;;;;;4809877;29;20201;-82
2022/03/28 12:51:38;;;;;;;15.98;14.30;;;;;;;;;;4825221;29;20107;-74
2022/03/28 12:54:06;;;;;;;16.77;14.25;;;;;;;;;;4825064;29;20096;-74
2022/03/28 12:57:02;;;;;;;16.33;14.32;;;;;;;;;;4822515;29;20114;-75
2022/03/28 12:59:29;;;;;;;17.55;13.88;;;;;;;;;;4812914;29;20149;-74
2022/03/28 13:02:09;;;;;;;19.27;14.88;;;;;;;;;;4823781;29;20056;-74
2022/03/28 13:04:46;;;;;;;19.77;14.30;;;;;;;;;;4824909;29;20049;-74
2022/03/28 13:07:23;;;;;;;15.88;14.07;;;;;;;;;;4809576;29;20312;-74
2022/03/28 13:09:59;;;;;;;20.55;15.52;;;;;;;;;;4810391;29;20053;-74
2022/03/28 13:12:40;;;;;;;16.58;14.88;;;;;;;;;;4823971;29;20060;-75
2022/03/28 13:15:07;;;;;;;18.00;15.23;;;;;;;;;;4824815;29;20118;-74
2022/03/28 13:17:34;;;;;;;18.75;15.27;;;;;;;;;;4809909;29;20046;-75
2022/03/28 13:20:04;;;;;;;21.13;15.48;;;;;;;;;;4809589;29;20101;-76
2022/03/28 13:22:32;;;;;;;21.58;15.82;;;;;;;;;;4824813;29;20053;-74
2022/03/28 13:25:19;;;;;;;17.90;15.80;;;;;;;;;;4809324;29;20042;-77
2022/03/28 13:28:01;;;;;;;19.05;15.70;;;;;;;;;;4825387;29;20112;-75
2022/03/28 13:30:48;;;;;;;19.25;16.15;;;;;;;;;;4824791;29;20336;-77
2022/03/28 13:33:15;;;;;;;17.02;15.23;;;;;;;;;;4808673;29;20072;-76
2022/03/28 13:35:42;;;;;;;17.73;14.77;;;;;;;;;;4824869;29;20092;-76
2022/03/28 13:38:10;;;;;;;20.15;15.50;;;;;;;;;;4824585;29;20049;-80
2022/03/28 13:40:36;;;;;;;16.95;14.93;;;;;;;;;;4809779;29;20050;-76
2022/03/28 13:43:03;;;;;;;16.10;14.23;;;;;;;;;;4824867;29;20069;-77
2022/03/28 13:45:30;;;;;;;19.77;15.23;;;;;;;;;;4809799;29;20410;-78
2022/03/28 13:47:56;;;;;;;18.42;14.77;;;;;;;;;;4825265;29;20057;-75
2022/03/28 13:50:24;;;;;;;17.52;15.45;;;;;;;;;;4824908;29;20142;-76
2022/03/28 13:52:50;;;;;;;18.88;15.45;;;;;;;;;;4809795;29;20164;-76
2022/03/28 13:55:17;;;;;;;19.05;15.70;;;;;;;;;;4825016;29;20458;-76
2022/03/28 13:57:44;;;;;;;20.17;16.60;;;;;;;;;;4808664;29;20406;-76
2022/03/28 14:00:11;;;;;;;20.92;16.17;;;;;;;;;;4824925;29;20045;-80
2022/03/28 14:02:37;;;;;;;17.38;15.55;;;;;;;;;;4808010;29;20087;-75
2022/03/28 14:05:04;;;;;;;18.65;16.70;;;;;;;;;;4824530;29;20438;-78
2022/03/28 14:07:31;;;;;;;17.13;14.75;;;;;;;;;;4809184;29;20403;-76
2022/03/28 14:09:57;;;;;;;18.00;15.80;;;;;;;;;;4824214;29;20129;-76
2022/03/28 14:12:26;;;;;;;16.63;14.55;;;;;;;;;;4824343;29;20050;-75
2022/03/28 14:14:53;;;;;;;16.60;14.13;;;;;;;;;;4809466;29;20060;-76
2022/03/28 14:17:19;;;;;;;17.90;15.27;;;;;;;;;;4809292;29;20133;-77
2022/03/28 14:19:46;;;;;;;20.65;15.50;;;;;;;;;;4823289;29;20046;-82
2022/03/28 14:22:12;;;;;;;18.00;14.68;;;;;;;;;;4806898;29;20054;-80
2022/03/28 14:24:38;;;;;;;18.73;14.88;;;;;;;;;;4822811;29;20052;-79
2022/03/28 14:27:05;;;;;;;19.27;14.18;;;;;;;;;;4819152;29;20376;-80